Time;durP1;ratioP1;P1;durP2;ratioP2;P2;SDS_P1;SDS_P2;PMS_P1;PMS_P2;Temp;Humidity;BMP_temperature;BMP_pressure;BME280_temperature;BME280_humidity;BME280_pressure;Samples;Min_cycle;Max_cycle;Signal;HPM_P1;HPM_P2
2021/12/17 00:01:05;;;;;;;56.13;34.13;;;10.20;99.90;;;;;;5041867;28;20696;-77
2021/12/17 00:03:39;;;;;;;58.90;33.87;;;10.10;99.90;;;;;;5060762;28;20217;-77
2021/12/17 00:06:29;;;;;;;60.23;36.53;;;10.00;99.90;;;;;;5047812;28;20197;-77
2021/12/17 00:08:58;;;;;;;60.63;34.23;;;10.00;99.90;;;;;;5040473;28;20199;-78
2021/12/17 00:11:26;;;;;;;64.77;36.33;;;10.00;99.90;;;;;;5048859;28;20304;-77
2021/12/17 00:13:55;;;;;;;55.17;33.43;;;10.10;99.90;;;;;;5053892;28;20194;-77
2021/12/17 00:16:27;;;;;;;59.77;34.10;;;10.00;99.90;;;;;;5044153;28;20217;-77
2021/12/17 00:19:23;;;;;;;56.23;34.47;;;10.10;99.90;;;;;;5065265;28;20218;-77
2021/12/17 00:48:21;;;;;;;66.37;37.60;;;10.00;99.90;;;;;;5042294;28;20198;-77
2021/12/17 00:50:02;;;;;;;71.33;39.07;;;10.00;99.90;;;;;;5048406;28;20195;-77
2021/12/17 00:52:36;;;;;;;72.60;39.77;;;10.00;99.90;;;;;;5042932;28;20688;-77
2021/12/17 00:55:04;;;;;;;72.47;40.30;;;9.90;99.90;;;;;;5040284;28;20671;-77
2021/12/17 00:57:38;;;;;;;79.40;41.93;;;9.90;99.90;;;;;;5044008;28;20214;-77
2021/12/17 01:00:09;;;;;;;76.07;41.03;;;9.90;99.90;;;;;;5061734;28;20230;-77
2021/12/17 01:03:05;;;;;;;74.03;41.87;;;10.00;99.90;;;;;;5066495;28;20229;-78
2021/12/17 01:05:34;;;;;;;79.90;41.17;;;9.90;99.90;;;;;;5043221;28;20222;-77
2021/12/17 01:08:05;;;;;;;75.83;40.17;;;10.00;99.90;;;;;;5041038;28;20199;-77
2021/12/17 01:10:36;;;;;;;74.27;41.30;;;10.00;99.90;;;;;;5039966;28;20195;-77
2021/12/17 01:13:26;;;;;;;72.97;38.83;;;10.00;99.90;;;;;;5040475;28;20202;-77
2021/12/17 01:16:34;;;;;;;97.43;44.03;;;10.10;99.90;;;;;;5047809;28;20201;-77
2021/12/17 01:19:25;;;;;;;103.67;46.57;;;10.10;99.90;;;;;;5039780;28;20241;-77
2021/12/17 01:22:41;;;;;;;113.70;49.13;;;10.10;99.90;;;;;;5040737;28;20226;-77
2021/12/17 01:35:20;;;;;;;127.13;52.30;;;10.00;99.90;;;;;;5041179;28;20202;-77
2021/12/17 01:35:23;;;;;;;101.53;47.27;;;10.10;99.90;;;;;;5051686;28;21166;-77
2021/12/17 01:41:41;;;;;;;82.23;40.60;;;10.20;99.90;;;;;;5040997;28;20223;-78
2021/12/17 01:44:13;;;;;;;77.00;39.20;;;10.10;99.90;;;;;;5038861;28;20209;-77
2021/12/17 01:46:41;;;;;;;105.23;46.63;;;10.10;99.90;;;;;;5064328;28;20664;-77
2021/12/17 01:49:25;;;;;;;111.87;50.47;;;10.20;99.90;;;;;;5040434;28;20565;-77
2021/12/17 02:00:20;;;;;;;86.63;39.93;;;10.20;99.90;;;;;;5049705;28;20221;-77
2021/12/17 02:02:54;;;;;;;90.50;41.33;;;10.10;99.90;;;;;;5039924;28;20546;-77
2021/12/17 02:05:32;;;;;;;102.47;44.03;;;10.10;99.90;;;;;;5048436;28;20210;-77
2021/12/17 02:08:00;;;;;;;104.87;44.37;;;10.10;99.90;;;;;;5045326;28;20202;-77
2021/12/17 02:30:18;;;;;;;103.13;45.20;;;10.10;99.90;;;;;;5045627;28;20190;-77
2021/12/17 02:32:47;;;;;;;98.20;45.80;;;10.20;99.90;;;;;;5040651;28;20210;-77
2021/12/17 02:35:31;;;;;;;98.10;43.90;;;10.30;99.90;;;;;;5043706;28;20226;-77
2021/12/17 02:38:01;;;;;;;86.67;41.50;;;10.30;99.90;;;;;;5032502;28;20277;-77
2021/12/17 02:46:58;;;;;;;115.10;47.73;;;10.20;99.90;;;;;;5033998;28;20210;-77
2021/12/17 02:49:29;;;;;;;108.17;47.57;;;10.20;99.90;;;;;;5050025;28;20559;-77
2021/12/17 02:51:57;;;;;;;109.70;47.30;;;10.20;99.90;;;;;;5043204;28;20218;-77
2021/12/17 02:54:27;;;;;;;117.63;50.97;;;10.20;99.90;;;;;;5063692;28;20205;-77
2021/12/17 02:56:54;;;;;;;124.03;51.67;;;10.30;99.90;;;;;;5048282;28;20198;-77
2021/12/17 02:59:22;;;;;;;112.50;48.83;;;10.40;99.90;;;;;;5048729;28;20198;-78
2021/12/17 03:01:50;;;;;;;129.00;51.67;;;10.30;99.90;;;;;;5043703;28;20233;-77
2021/12/17 03:04:20;;;;;;;119.33;49.23;;;10.30;99.90;;;;;;5062595;28;20679;-77
2021/12/17 03:06:57;;;;;;;117.10;50.20;;;10.30;99.90;;;;;;5046844;28;20194;-77
2021/12/17 03:09:43;;;;;;;127.60;52.13;;;10.30;99.90;;;;;;5047592;28;20218;-77
2021/12/17 03:12:16;;;;;;;129.43;52.23;;;10.30;99.90;;;;;;5038061;28;20214;-78
2021/12/17 03:14:52;;;;;;;136.70;51.20;;;10.30;99.90;;;;;;5041663;28;20199;-78
2021/12/17 03:17:35;;;;;;;120.17;51.77;;;10.30;99.90;;;;;;5053201;28;20202;-77
2021/12/17 03:25:33;;;;;;;112.40;48.57;;;10.30;99.90;;;;;;5031846;28;20202;-77
2021/12/17 03:28:00;;;;;;;107.40;46.67;;;10.20;99.90;;;;;;5049158;28;20210;-77
2021/12/17 03:30:28;;;;;;;105.40;47.23;;;10.20;99.90;;;;;;5045364;28;20202;-77
2021/12/17 03:32:55;;;;;;;100.97;45.47;;;10.20;99.90;;;;;;5046986;28;20200;-77
2021/12/17 03:35:23;;;;;;;107.53;47.97;;;10.20;99.90;;;;;;5040343;28;20684;-77
2021/12/17 03:37:51;;;;;;;91.50;44.50;;;10.10;99.90;;;;;;5044341;28;20229;-77
2021/12/17 03:40:20;;;;;;;110.47;49.17;;;10.10;99.90;;;;;;5039641;28;20202;-77
2021/12/17 03:42:51;;;;;;;104.50;46.03;;;10.10;99.90;;;;;;5048919;28;20219;-77
2021/12/17 03:45:21;;;;;;;102.23;48.17;;;10.20;99.90;;;;;;5058330;28;20205;-77
2021/12/17 03:48:36;;;;;;;81.23;40.97;;;10.20;99.90;;;;;;5047416;28;20205;-77
2021/12/17 03:51:05;;;;;;;93.53;43.20;;;10.10;99.90;;;;;;5063355;28;20214;-77
2021/12/17 03:53:32;;;;;;;98.20;45.63;;;10.00;99.90;;;;;;5039832;28;20199;-77
2021/12/17 03:55:59;;;;;;;95.00;45.17;;;10.20;99.90;;;;;;5043007;28;20195;-77
2021/12/17 03:58:28;;;;;;;100.23;45.43;;;10.30;99.90;;;;;;5040984;28;20210;-77
2021/12/17 04:00:56;;;;;;;96.00;43.97;;;10.40;99.90;;;;;;5036733;28;20218;-77
2021/12/17 04:03:23;;;;;;;112.63;48.53;;;10.50;99.90;;;;;;5065974;28;20198;-77
2021/12/17 04:05:57;;;;;;;103.93;47.10;;;10.50;99.90;;;;;;5060054;28;20206;-78
2021/12/17 04:08:44;;;;;;;98.93;45.37;;;10.50;99.90;;;;;;5041560;28;20191;-77
2021/12/17 04:11:31;;;;;;;108.40;45.73;;;10.40;99.90;;;;;;5048041;28;20222;-77
2021/12/17 04:14:15;;;;;;;98.27;45.10;;;10.30;99.90;;;;;;5043041;28;20206;-77
2021/12/17 04:17:05;;;;;;;100.07;44.30;;;10.30;99.90;;;;;;5049966;28;20198;-77
2021/12/17 04:19:32;;;;;;;95.30;44.07;;;10.30;99.90;;;;;;5050820;28;20198;-77
2021/12/17 04:22:00;;;;;;;91.50;42.57;;;10.30;99.90;;;;;;5033228;28;20223;-77
2021/12/17 04:24:28;;;;;;;82.10;41.03;;;10.20;99.90;;;;;;5055413;28;20205;-77
2021/12/17 04:26:56;;;;;;;89.63;43.30;;;10.10;99.90;;;;;;5077192;28;20195;-77
2021/12/17 04:29:26;;;;;;;84.37;41.10;;;10.20;99.90;;;;;;5049332;28;20195;-77
2021/12/17 04:31:55;;;;;;;79.97;38.70;;;10.30;99.90;;;;;;5040907;28;20214;-77
2021/12/17 04:34:25;;;;;;;79.67;37.93;;;10.30;99.90;;;;;;5050888;28;20707;-77
2021/12/17 04:36:55;;;;;;;75.17;36.33;;;10.40;99.90;;;;;;5065960;28;20191;-77
2021/12/17 04:39:34;;;;;;;66.90;36.73;;;10.40;99.90;;;;;;5051080;28;20202;-77
2021/12/17 04:42:06;;;;;;;71.60;34.97;;;10.40;99.90;;;;;;5046066;28;20225;-77
2021/12/17 04:44:41;;;;;;;61.73;34.50;;;10.60;99.90;;;;;;5035466;28;20203;-77
2021/12/17 04:58:08;;;;;;;62.50;32.93;;;10.50;99.90;;;;;;5048030;28;20186;-77
2021/12/17 05:00:37;;;;;;;59.67;32.77;;;10.50;99.90;;;;;;5044614;28;20210;-77
2021/12/17 05:03:16;;;;;;;63.77;34.13;;;10.40;99.90;;;;;;5041240;28;20199;-77
2021/12/17 05:05:46;;;;;;;62.03;34.47;;;10.40;99.90;;;;;;5067643;28;20200;-77
2021/12/17 05:08:23;;;;;;;63.50;35.47;;;10.40;99.90;;;;;;5043855;28;20198;-77
2021/12/17 05:11:16;;;;;;;63.27;33.87;;;10.30;99.90;;;;;;5045625;28;20206;-77
2021/12/17 05:19:25;;;;;;;62.43;34.50;;;10.50;99.90;;;;;;5048326;28;20205;-77
2021/12/17 05:21:53;;;;;;;61.13;33.83;;;10.30;99.90;;;;;;5034604;28;20214;-77
2021/12/17 05:24:21;;;;;;;62.63;32.97;;;10.50;99.90;;;;;;5043683;28;20194;-77
2021/12/17 05:26:48;;;;;;;59.50;33.90;;;10.40;99.90;;;;;;5044182;28;20213;-77
2021/12/17 05:29:16;;;;;;;60.33;32.97;;;10.50;99.90;;;;;;5056034;28;20202;-77
2021/12/17 05:31:46;;;;;;;57.83;33.93;;;10.50;99.90;;;;;;5043934;28;20226;-77
2021/12/17 05:34:14;;;;;;;60.60;35.23;;;10.60;99.90;;;;;;5032477;28;20207;-77
2021/12/17 05:36:57;;;;;;;59.27;33.17;;;10.60;99.90;;;;;;5050543;28;20209;-77
2021/12/17 05:39:28;;;;;;;67.60;34.33;;;10.70;99.90;;;;;;5050500;28;20202;-77
2021/12/17 05:41:59;;;;;;;61.63;34.73;;;10.60;99.90;;;;;;5043351;28;20219;-77
2021/12/17 05:44:35;;;;;;;59.43;33.73;;;10.50;99.90;;;;;;5050450;28;20221;-77
2021/12/17 05:47:06;;;;;;;59.80;32.23;;;10.50;99.90;;;;;;5041839;28;20195;-77
2021/12/17 05:49:36;;;;;;;44.77;25.47;;;10.50;99.90;;;;;;5042413;28;20202;-77
2021/12/17 05:52:05;;;;;;;52.83;29.17;;;11.00;99.90;;;;;;5050087;28;20218;-77
2021/12/17 05:54:34;;;;;;;50.37;29.03;;;11.60;99.90;;;;;;5061122;28;20194;-77
2021/12/17 05:57:09;;;;;;;50.63;29.90;;;11.90;99.90;;;;;;5051280;28;20201;-77
2021/12/17 05:59:52;;;;;;;56.20;32.70;;;12.10;99.90;;;;;;5045169;28;20206;-77
2021/12/17 06:02:20;;;;;;;53.95;30.52;;;12.00;99.90;;;;;;5045228;28;20227;-77
2021/12/17 06:04:52;;;;;;;49.57;30.53;;;11.40;99.90;;;;;;5048705;28;20190;-78
2021/12/17 06:07:26;;;;;;;51.92;29.77;;;11.10;99.90;;;;;;5050380;28;20231;-77
2021/12/17 06:09:57;;;;;;;50.00;28.53;;;10.80;99.90;;;;;;5050320;28;20191;-77
2021/12/17 06:12:25;;;;;;;48.90;29.45;;;10.70;99.90;;;;;;5068772;28;20577;-77
2021/12/17 06:14:52;;;;;;;48.27;28.40;;;10.70;99.90;;;;;;5068188;28;20198;-77
2021/12/17 06:17:26;;;;;;;47.00;28.37;;;10.70;99.90;;;;;;5046885;28;20206;-77
2021/12/17 06:19:55;;;;;;;47.57;29.77;;;10.60;99.90;;;;;;5045876;28;20552;-77
2021/12/17 06:22:22;;;;;;;47.20;29.13;;;10.50;99.90;;;;;;5044288;28;20230;-77
2021/12/17 06:24:53;;;;;;;45.17;25.73;;;10.50;99.90;;;;;;5040966;28;20195;-77
2021/12/17 06:27:22;;;;;;;44.13;25.97;;;10.40;99.90;;;;;;5042917;28;20206;-78
2021/12/17 06:29:51;;;;;;;43.97;26.23;;;10.30;99.90;;;;;;5044996;28;20202;-77
2021/12/17 06:32:20;;;;;;;40.97;25.27;;;10.20;99.90;;;;;;5078503;28;20238;-77
2021/12/17 06:34:50;;;;;;;42.33;25.10;;;10.10;99.90;;;;;;5064443;28;20216;-77
2021/12/17 06:37:18;;;;;;;44.47;26.70;;;10.10;99.90;;;;;;5056262;28;20201;-77
2021/12/17 06:39:47;;;;;;;43.43;25.27;;;10.20;99.90;;;;;;5052801;28;20550;-77
2021/12/17 06:42:17;;;;;;;44.30;26.10;;;10.20;99.90;;;;;;5042837;28;20226;-77
2021/12/17 06:44:47;;;;;;;41.43;25.47;;;10.30;99.90;;;;;;5036204;28;20203;-77
2021/12/17 06:47:26;;;;;;;42.20;25.07;;;10.30;99.90;;;;;;5045150;28;20206;-77
2021/12/17 06:59:12;;;;;;;36.03;22.13;;;10.30;99.90;;;;;;5034372;28;20213;-77
2021/12/17 07:11:18;;;;;;;37.33;22.07;;;10.40;99.90;;;;;;5029759;28;20211;-77
2021/12/17 07:17:14;;;;;;;34.20;20.53;;;10.50;99.90;;;;;;5041811;28;20804;-77
2021/12/17 07:23:11;;;;;;;30.47;18.50;;;10.40;99.90;;;;;;5046752;28;20211;-77
2021/12/17 07:34:17;;;;;;;28.47;18.77;;;10.30;99.90;;;;;;5034751;28;20676;-77
2021/12/17 07:38:35;;;;;;;28.70;17.73;;;10.10;99.90;;;;;;5043244;28;20201;-77
2021/12/17 07:39:43;;;;;;;27.67;17.73;;;10.10;99.90;;;;;;5033311;28;20214;-77
2021/12/17 07:42:38;;;;;;;27.53;17.23;;;10.10;99.90;;;;;;5043211;28;20225;-77
2021/12/17 07:45:14;;;;;;;26.10;16.63;;;10.30;99.90;;;;;;5042467;28;20548;-76
2021/12/17 07:47:57;;;;;;;28.50;17.33;;;10.30;99.90;;;;;;5061214;28;20197;-76
2021/12/17 07:50:54;;;;;;;25.10;15.63;;;10.30;99.90;;;;;;5053855;28;20218;-76
2021/12/17 07:53:34;;;;;;;25.60;15.60;;;10.10;99.90;;;;;;5061336;28;20197;-76
2021/12/17 07:56:08;;;;;;;23.70;15.07;;;10.20;99.90;;;;;;5044913;28;20195;-77
2021/12/17 07:58:40;;;;;;;22.73;14.17;;;10.30;99.90;;;;;;5038053;28;20203;-76
2021/12/17 08:01:32;;;;;;;19.93;13.50;;;10.20;99.90;;;;;;5040763;28;20230;-76
2021/12/17 08:04:00;;;;;;;20.73;13.97;;;10.20;99.90;;;;;;5056774;28;20216;-76
2021/12/17 08:06:44;;;;;;;21.60;13.43;;;10.20;99.90;;;;;;5064759;28;20201;-76
2021/12/17 08:09:19;;;;;;;19.53;14.10;;;10.30;99.90;;;;;;5051452;28;20556;-76
2021/12/17 08:11:55;;;;;;;19.57;13.57;;;10.30;99.90;;;;;;5053473;28;20222;-78
2021/12/17 08:14:26;;;;;;;18.03;13.37;;;10.30;99.90;;;;;;5051426;28;20571;-77
2021/12/17 08:16:59;;;;;;;19.17;11.97;;;10.30;99.90;;;;;;5065548;28;20193;-76
2021/12/17 08:25:15;;;;;;;19.57;13.40;;;10.10;99.90;;;;;;4984119;28;20650;-77
2021/12/17 08:28:02;;;;;;;19.97;13.03;;;10.10;99.90;;;;;;4988812;28;20780;-77
2021/12/17 08:30:38;;;;;;;20.17;13.20;;;10.10;99.90;;;;;;5022485;28;20679;-77
2021/12/17 08:33:19;;;;;;;22.60;13.40;;;10.00;99.90;;;;;;5060406;28;20194;-76
2021/12/17 08:35:48;;;;;;;23.07;14.23;;;10.00;99.90;;;;;;5036101;28;20214;-77
2021/12/17 08:38:25;;;;;;;19.70;13.33;;;10.00;99.90;;;;;;5044373;28;20198;-78
2021/12/17 08:40:52;;;;;;;19.90;12.93;;;10.00;99.90;;;;;;5052022;28;20210;-77
2021/12/17 08:43:21;;;;;;;20.03;13.27;;;10.10;99.90;;;;;;5070119;28;20229;-77
2021/12/17 08:45:53;;;;;;;19.00;12.30;;;10.00;99.90;;;;;;5061319;28;20203;-77
2021/12/17 08:48:41;;;;;;;20.90;13.40;;;10.00;99.90;;;;;;5042629;28;20209;-77
2021/12/17 08:51:27;;;;;;;18.53;11.77;;;10.10;99.90;;;;;;5053853;28;20245;-78
2021/12/17 08:53:55;;;;;;;19.97;13.10;;;10.10;99.90;;;;;;5034051;28;20203;-78
2021/12/17 08:56:29;;;;;;;17.00;12.47;;;10.10;99.90;;;;;;5048574;28;20198;-78
2021/12/17 08:58:59;;;;;;;18.57;12.53;;;10.10;99.90;;;;;;5045803;28;20202;-76
2021/12/17 09:01:33;;;;;;;17.83;12.07;;;10.20;99.90;;;;;;5055251;28;20213;-77
2021/12/17 09:04:02;;;;;;;17.83;12.47;;;10.20;99.90;;;;;;5053061;28;20214;-77
2021/12/17 09:06:39;;;;;;;15.60;11.00;;;10.10;99.90;;;;;;5053006;28;20205;-78
2021/12/17 09:09:07;;;;;;;15.57;10.67;;;10.10;99.90;;;;;;5069413;28;20221;-77
2021/12/17 09:11:36;;;;;;;13.47;9.33;;;10.10;99.90;;;;;;5085850;28;20221;-77
2021/12/17 09:14:10;;;;;;;14.67;9.70;;;10.10;99.90;;;;;;5064942;28;20198;-78
2021/12/17 09:16:49;;;;;;;15.00;9.90;;;10.10;99.90;;;;;;5032165;28;20549;-77
2021/12/17 09:19:19;;;;;;;14.70;10.37;;;10.10;99.90;;;;;;5049198;28;20573;-78
2021/12/17 09:21:51;;;;;;;15.17;10.53;;;10.10;99.90;;;;;;5042238;28;20221;-77
2021/12/17 09:24:23;;;;;;;13.73;10.17;;;10.20;99.90;;;;;;5052079;28;20218;-77
2021/12/17 09:27:28;;;;;;;13.67;9.70;;;10.30;99.90;;;;;;5052188;28;20205;-78
2021/12/17 09:30:01;;;;;;;12.27;8.77;;;10.20;99.90;;;;;;5060799;28;20189;-78
2021/12/17 09:32:30;;;;;;;12.97;9.13;;;10.20;99.90;;;;;;5053555;28;20206;-78
2021/12/17 09:34:59;;;;;;;12.67;9.27;;;10.20;99.90;;;;;;5052215;28;20206;-77
2021/12/17 09:37:26;;;;;;;15.00;10.70;;;10.30;99.90;;;;;;5051967;28;20664;-77
2021/12/17 09:39:54;;;;;;;13.03;9.43;;;10.30;99.90;;;;;;5048193;28;20222;-77
2021/12/17 09:42:21;;;;;;;11.97;9.50;;;10.40;99.90;;;;;;5040609;28;20233;-77
2021/12/17 09:44:48;;;;;;;12.40;9.30;;;10.30;99.90;;;;;;5049294;28;20225;-78
2021/12/17 09:47:16;;;;;;;12.30;9.43;;;10.30;99.90;;;;;;5054179;28;20221;-77
2021/12/17 09:49:45;;;;;;;12.20;9.87;;;10.30;99.90;;;;;;5051942;28;20205;-77
2021/12/17 09:52:13;;;;;;;12.20;9.30;;;10.30;99.90;;;;;;5051884;28;20219;-77
2021/12/17 09:54:41;;;;;;;12.50;9.47;;;10.30;99.90;;;;;;5052031;28;20209;-78
2021/12/17 09:57:08;;;;;;;11.73;9.27;;;10.30;99.90;;;;;;5052107;28;20217;-76
2021/12/17 09:59:36;;;;;;;13.57;9.80;;;10.40;99.90;;;;;;5053150;28;20567;-77
2021/12/17 10:02:04;;;;;;;13.37;10.13;;;10.40;99.90;;;;;;5052430;28;20218;-77
2021/12/17 10:04:32;;;;;;;13.37;10.07;;;10.40;99.90;;;;;;5051604;28;20206;-78
2021/12/17 10:07:19;;;;;;;13.37;9.93;;;10.40;99.90;;;;;;5052094;28;20209;-78
2021/12/17 10:09:48;;;;;;;15.20;10.73;;;10.40;99.90;;;;;;5068923;28;20209;-78
2021/12/17 10:12:16;;;;;;;14.00;10.47;;;10.40;99.90;;;;;;5052346;28;20229;-77
2021/12/17 10:15:02;;;;;;;14.63;10.67;;;10.40;99.90;;;;;;5051670;28;20198;-77
2021/12/17 10:17:29;;;;;;;14.13;11.07;;;10.50;99.90;;;;;;5051461;28;20197;-77
2021/12/17 10:19:58;;;;;;;15.80;11.53;;;10.50;99.90;;;;;;5032128;28;20195;-77
2021/12/17 10:22:29;;;;;;;15.43;10.10;;;10.50;99.90;;;;;;5031897;28;20223;-77
2021/12/17 10:25:05;;;;;;;15.33;11.37;;;10.50;99.90;;;;;;5046217;28;20545;-77
2021/12/17 10:27:34;;;;;;;17.27;11.53;;;10.50;99.90;;;;;;5052006;28;20202;-79
2021/12/17 10:30:12;;;;;;;12.93;10.83;;;10.30;99.90;;;;;;5053763;28;20205;-79
2021/12/17 10:32:43;;;;;;;12.97;10.07;;;10.40;99.90;;;;;;5052547;28;20220;-78
2021/12/17 10:35:13;;;;;;;13.83;9.67;;;10.50;99.90;;;;;;5053002;28;20190;-78
2021/12/17 10:37:44;;;;;;;12.23;9.80;;;10.50;99.90;;;;;;5051323;28;20194;-77
2021/12/17 10:40:20;;;;;;;11.27;8.60;;;10.50;99.90;;;;;;5052899;28;20193;-78
2021/12/17 10:42:55;;;;;;;12.23;9.20;;;10.60;99.90;;;;;;5064746;28;20214;-78
2021/12/17 10:45:25;;;;;;;10.50;8.40;;;10.60;99.90;;;;;;5047617;28;20221;-78
2021/12/17 10:48:20;;;;;;;9.97;8.10;;;10.50;99.90;;;;;;5068454;28;20217;-78
2021/12/17 10:50:52;;;;;;;12.37;8.83;;;10.60;99.90;;;;;;5068255;28;20226;-77
2021/12/17 10:53:26;;;;;;;10.83;9.00;;;10.70;99.90;;;;;;5053082;28;20202;-78
2021/12/17 10:55:54;;;;;;;11.00;8.03;;;10.70;99.90;;;;;;5052357;28;20210;-78
2021/12/17 10:58:28;;;;;;;12.47;7.70;;;10.70;99.90;;;;;;5049650;28;20213;-78
2021/12/17 11:01:01;;;;;;;11.03;7.50;;;10.70;99.90;;;;;;5042987;28;20226;-78
2021/12/17 11:03:49;;;;;;;10.03;8.27;;;10.60;99.90;;;;;;5045250;28;20565;-78
2021/12/17 11:06:52;;;;;;;10.17;8.17;;;10.60;99.90;;;;;;5054701;28;20206;-77
2021/12/17 11:09:41;;;;;;;11.73;8.50;;;10.70;99.90;;;;;;5053857;28;20672;-77
2021/12/17 11:12:30;;;;;;;11.33;8.20;;;10.60;99.90;;;;;;5064659;28;20736;-79
2021/12/17 11:15:13;;;;;;;9.70;7.10;;;10.60;99.90;;;;;;5049548;28;20187;-78
2021/12/17 11:17:42;;;;;;;6.97;5.47;;;10.60;99.90;;;;;;5050406;28;20205;-79
2021/12/17 11:20:12;;;;;;;8.43;5.60;;;10.60;99.90;;;;;;5063649;28;20518;-79
2021/12/17 11:22:41;;;;;;;9.00;5.70;;;10.60;99.90;;;;;;5043407;28;20219;-76
2021/12/17 11:25:11;;;;;;;5.83;4.43;;;11.60;99.90;;;;;;5045486;28;20222;-77
2021/12/17 11:27:38;;;;;;;4.90;3.87;;;12.00;99.90;;;;;;5047009;28;20210;-77
2021/12/17 11:30:16;;;;;;;5.85;3.88;;;12.30;99.90;;;;;;5050552;28;20198;-77
2021/12/17 11:32:45;;;;;;;5.00;3.88;;;12.50;99.90;;;;;;5065495;28;20229;-78
2021/12/17 11:35:15;;;;;;;4.38;3.88;;;11.90;99.90;;;;;;5037595;28;20215;-78
2021/12/17 11:37:44;;;;;;;4.50;3.67;;;11.50;99.90;;;;;;5049197;28;20203;-78
2021/12/17 11:40:21;;;;;;;4.60;3.50;;;11.10;99.90;;;;;;5057911;28;20202;-78
2021/12/17 11:43:16;;;;;;;4.10;3.63;;;11.00;99.90;;;;;;5034829;28;20242;-78
2021/12/17 11:45:44;;;;;;;4.57;4.05;;;10.80;99.90;;;;;;5040326;28;20206;-79
2021/12/17 11:48:16;;;;;;;4.53;4.10;;;10.90;99.90;;;;;;5050909;28;20568;-78
2021/12/17 11:50:44;;;;;;;4.20;3.63;;;10.70;99.90;;;;;;5042029;28;20657;-77
2021/12/17 11:53:21;;;;;;;4.53;3.60;;;10.70;99.90;;;;;;5048341;28;20197;-78
2021/12/17 11:55:57;;;;;;;3.80;3.10;;;10.60;99.90;;;;;;5041232;28;20201;-78
2021/12/17 11:58:46;;;;;;;4.23;3.67;;;10.60;99.90;;;;;;5037400;28;20201;-78
2021/12/17 12:01:14;;;;;;;5.27;4.27;;;10.60;99.90;;;;;;5038974;28;20576;-78
2021/12/17 12:03:41;;;;;;;4.17;3.47;;;10.60;99.90;;;;;;5042309;28;20191;-78
2021/12/17 12:06:34;;;;;;;5.60;3.63;;;10.50;99.90;;;;;;5047809;28;20214;-78
2021/12/17 12:09:02;;;;;;;3.83;3.23;;;10.50;99.90;;;;;;5044178;28;20199;-78
2021/12/17 12:11:30;;;;;;;6.40;3.47;;;10.50;99.90;;;;;;5041643;28;20214;-77
2021/12/17 12:13:58;;;;;;;3.93;3.13;;;10.60;99.90;;;;;;5048717;28;20653;-77
2021/12/17 12:16:27;;;;;;;4.83;3.57;;;10.50;99.90;;;;;;5044292;28;20213;-77
2021/12/17 12:18:57;;;;;;;4.43;3.60;;;10.60;99.90;;;;;;5052307;28;20194;-78
2021/12/17 12:21:32;;;;;;;4.13;3.30;;;10.40;99.90;;;;;;5059875;28;20226;-78
2021/12/17 12:24:11;;;;;;;4.00;3.57;;;10.30;99.90;;;;;;5035865;28;20198;-78
2021/12/17 12:26:45;;;;;;;5.20;3.97;;;10.30;99.90;;;;;;5051264;28;20680;-78
2021/12/17 12:29:18;;;;;;;6.77;5.43;;;10.30;99.90;;;;;;5050334;28;20216;-78
2021/12/17 12:32:17;;;;;;;7.20;6.40;;;10.30;99.90;;;;;;5056015;28;20223;-78
2021/12/17 12:34:44;;;;;;;8.30;6.70;;;10.20;99.90;;;;;;5046726;28;20213;-79
2021/12/17 12:37:27;;;;;;;8.93;7.17;;;10.20;99.90;;;;;;5051289;28;20202;-78
2021/12/17 12:40:21;;;;;;;8.23;7.07;;;10.20;99.90;;;;;;5061021;28;20198;-78
2021/12/17 12:42:54;;;;;;;8.53;6.47;;;10.30;99.90;;;;;;5055469;28;20214;-78
2021/12/17 12:45:23;;;;;;;8.83;6.77;;;10.30;99.90;;;;;;5061077;28;20218;-78
2021/12/17 12:47:58;;;;;;;7.40;5.93;;;10.20;99.90;;;;;;5054572;28;20186;-78
2021/12/17 12:50:31;;;;;;;7.63;5.83;;;10.10;99.90;;;;;;5058638;28;20201;-78
2021/12/17 12:53:01;;;;;;;6.53;5.80;;;10.20;99.90;;;;;;5073253;28;20193;-78
2021/12/17 12:55:31;;;;;;;6.00;5.40;;;10.30;99.90;;;;;;5075627;28;20174;-78
2021/12/17 12:58:08;;;;;;;6.60;5.20;;;10.40;99.90;;;;;;5071543;28;20637;-78
2021/12/17 13:00:41;;;;;;;6.37;5.43;;;10.20;99.90;;;;;;5058453;28;20204;-78
2021/12/17 13:03:30;;;;;;;6.70;4.70;;;10.20;99.90;;;;;;5069773;28;20202;-78
2021/12/17 13:06:00;;;;;;;4.50;4.03;;;10.20;99.90;;;;;;5033708;28;20211;-78
2021/12/17 13:08:31;;;;;;;6.30;4.70;;;10.10;99.90;;;;;;5049583;28;20193;-78
2021/12/17 13:11:01;;;;;;;6.37;5.50;;;10.20;99.90;;;;;;5062854;28;20616;-78
2021/12/17 13:13:36;;;;;;;5.50;4.23;;;10.20;99.90;;;;;;5054159;28;20209;-78
2021/12/17 13:16:12;;;;;;;5.23;4.20;;;10.40;99.90;;;;;;5075060;28;20201;-78
2021/12/17 13:21:44;;;;;;;4.63;3.80;;;10.30;99.90;;;;;;5051736;28;20222;-79
2021/12/17 13:24:15;;;;;;;4.63;4.20;;;10.30;99.90;;;;;;5047084;28;20652;-78
2021/12/17 13:26:46;;;;;;;5.57;4.73;;;10.40;99.90;;;;;;5053731;28;20194;-78
2021/12/17 13:29:18;;;;;;;5.30;4.67;;;10.50;99.90;;;;;;5042663;28;20581;-79
2021/12/17 13:31:54;;;;;;;5.33;4.70;;;10.40;99.90;;;;;;5052810;28;20225;-78
2021/12/17 13:34:27;;;;;;;5.67;5.07;;;10.50;99.90;;;;;;5052968;28;20206;-78
2021/12/17 13:36:58;;;;;;;6.47;5.20;;;10.40;99.90;;;;;;5052672;28;20210;-78
2021/12/17 13:39:28;;;;;;;6.43;5.00;;;10.40;99.90;;;;;;5054036;28;20202;-78
2021/12/17 13:41:56;;;;;;;6.87;5.30;;;10.40;99.90;;;;;;5046975;28;20221;-78
2021/12/17 13:44:42;;;;;;;5.83;5.10;;;10.20;99.90;;;;;;5053280;28;20217;-78
2021/12/17 13:47:36;;;;;;;6.27;4.97;;;10.30;99.90;;;;;;5057438;28;20195;-78
2021/12/17 13:50:11;;;;;;;5.40;4.80;;;10.20;99.90;;;;;;5052923;28;20205;-78
2021/12/17 13:52:46;;;;;;;5.13;4.60;;;10.10;99.90;;;;;;5051584;28;20214;-78
2021/12/17 13:55:15;;;;;;;5.13;4.63;;;10.20;99.90;;;;;;5068503;28;20651;-78
2021/12/17 13:57:44;;;;;;;5.40;4.17;;;10.20;99.90;;;;;;5058821;28;20206;-78
2021/12/17 14:00:33;;;;;;;5.53;5.03;;;10.40;99.90;;;;;;5049591;28;20194;-79
2021/12/17 14:03:01;;;;;;;5.70;4.60;;;10.40;99.90;;;;;;5052030;28;20205;-78
2021/12/17 14:05:48;;;;;;;6.20;5.03;;;10.40;99.90;;;;;;5053140;28;20231;-78
2021/12/17 14:08:18;;;;;;;6.03;5.43;;;10.30;99.90;;;;;;5053810;28;20194;-78
2021/12/17 14:10:47;;;;;;;6.63;5.07;;;10.20;99.90;;;;;;5052641;28;20406;-78
2021/12/17 14:13:20;;;;;;;5.13;4.63;;;10.10;99.90;;;;;;5068613;28;20198;-78
2021/12/17 14:15:53;;;;;;;5.67;4.87;;;10.20;99.90;;;;;;5058557;28;20224;-78
2021/12/17 14:18:28;;;;;;;4.93;4.47;;;10.20;99.90;;;;;;5053132;28;20210;-78
2021/12/17 14:20:57;;;;;;;5.10;4.23;;;10.30;99.90;;;;;;5053311;28;20218;-78
2021/12/17 14:23:40;;;;;;;6.10;4.97;;;10.40;99.90;;;;;;5062397;28;20667;-79
2021/12/17 14:26:09;;;;;;;5.83;4.73;;;10.20;99.90;;;;;;5069673;28;20221;-78
2021/12/17 14:28:39;;;;;;;5.30;4.80;;;10.10;99.90;;;;;;5065671;28;20201;-78
2021/12/17 14:31:09;;;;;;;6.10;5.03;;;10.20;99.90;;;;;;5062470;28;20226;-78
2021/12/17 14:33:39;;;;;;;6.37;5.33;;;10.20;99.90;;;;;;5042521;28;20194;-79
2021/12/17 14:36:11;;;;;;;6.37;5.17;;;10.30;99.90;;;;;;5046221;28;20202;-78
2021/12/17 14:38:45;;;;;;;6.43;4.83;;;10.20;99.90;;;;;;5017594;28;20206;-79
2021/12/17 14:41:16;;;;;;;6.00;5.40;;;10.30;99.90;;;;;;5042472;28;20221;-79
2021/12/17 14:43:50;;;;;;;5.97;5.37;;;10.30;99.90;;;;;;5048276;28;20202;-78
2021/12/17 14:46:23;;;;;;;8.83;5.97;;;10.40;99.90;;;;;;5048038;28;20210;-79
2021/12/17 14:49:24;;;;;;;7.37;5.83;;;10.30;99.90;;;;;;5053182;28;20198;-78
2021/12/17 14:58:28;;;;;;;7.43;6.43;;;10.00;99.90;;;;;;5050740;28;20201;-77
2021/12/17 15:00:34;;;;;;;6.60;5.87;;;9.90;99.90;;;;;;5050704;28;20699;-78
2021/12/17 15:03:20;;;;;;;9.97;8.97;;;10.10;99.90;;;;;;5036118;28;20202;-78
2021/12/17 15:05:48;;;;;;;10.33;9.27;;;10.00;99.90;;;;;;5038599;28;20210;-78
2021/12/17 15:08:29;;;;;;;9.77;8.57;;;9.80;99.90;;;;;;5041404;28;20665;-78
2021/12/17 15:10:57;;;;;;;9.77;7.27;;;9.90;99.90;;;;;;5047638;28;20218;-78
2021/12/17 15:13:25;;;;;;;8.40;7.50;;;10.00;99.90;;;;;;5051376;28;20213;-78
2021/12/17 15:15:54;;;;;;;7.03;5.10;;;10.10;99.90;;;;;;5051885;28;20195;-77
2021/12/17 15:18:23;;;;;;;8.83;5.63;;;10.80;99.90;;;;;;5038368;28;20199;-78
2021/12/17 15:20:53;;;;;;;7.97;6.13;;;11.20;99.90;;;;;;5051322;28;20213;-78
2021/12/17 15:23:22;;;;;;;6.97;5.80;;;11.30;99.90;;;;;;5050300;28;20199;-78
2021/12/17 15:25:50;;;;;;;8.87;7.53;;;11.70;99.90;;;;;;5048771;28;20233;-79
2021/12/17 15:28:21;;;;;;;9.60;6.87;;;11.20;99.90;;;;;;5053778;28;20213;-79
2021/12/17 15:30:50;;;;;;;10.23;6.40;;;10.60;99.90;;;;;;5048639;28;20218;-78